Time;durP1;ratioP1;P1;durP2;ratioP2;P2;SDS_P1;SDS_P2;PMS_P1;PMS_P2;Temp;Humidity;BMP_temperature;BMP_pressure;BME280_temperature;BME280_humidity;BME280_pressure;Samples;Min_cycle;Max_cycle;Signal;HPM_P1;HPM_P2
2024/04/16 00:00:40;;;;;;;1.90;0.80;;;6.60;99.90;;;;;;5393158;26;20015;-87
2024/04/16 00:03:06;;;;;;;0.63;0.50;;;6.60;99.90;;;;;;5393521;26;19999;-86
2024/04/16 00:05:32;;;;;;;1.13;0.50;;;6.50;99.90;;;;;;5393456;26;20074;-88
2024/04/16 00:07:58;;;;;;;1.20;0.60;;;6.50;99.90;;;;;;5391014;26;20004;-87
2024/04/16 00:10:24;;;;;;;0.50;0.50;;;6.50;99.90;;;;;;5394978;26;20022;-86
2024/04/16 00:12:49;;;;;;;1.67;0.70;;;6.50;99.90;;;;;;5392646;26;20015;-87
2024/04/16 00:15:16;;;;;;;1.30;0.60;;;6.50;99.90;;;;;;5393824;26;20210;-87
2024/04/16 00:17:42;;;;;;;2.90;0.80;;;6.50;99.90;;;;;;5358435;26;19996;-88
2024/04/16 00:20:08;;;;;;;1.00;0.60;;;6.40;99.90;;;;;;5390005;26;20008;-87
2024/04/16 00:22:34;;;;;;;1.73;0.80;;;6.40;99.90;;;;;;5391039;26;20078;-87
2024/04/16 00:24:59;;;;;;;1.60;0.63;;;6.40;99.90;;;;;;5395052;26;21693;-88
2024/04/16 00:27:25;;;;;;;1.53;0.80;;;6.30;99.90;;;;;;5395202;26;20003;-87
2024/04/16 00:29:50;;;;;;;0.57;0.57;;;6.30;99.90;;;;;;5395209;26;20056;-88
2024/04/16 00:32:16;;;;;;;0.90;0.70;;;6.30;99.90;;;;;;5393803;26;20011;-88
2024/04/16 00:34:41;;;;;;;2.13;0.70;;;6.30;99.90;;;;;;5397651;26;20011;-87
2024/04/16 00:37:07;;;;;;;2.17;0.63;;;6.30;99.90;;;;;;5393347;26;19998;-88
2024/04/16 00:39:32;;;;;;;1.33;0.50;;;6.30;99.90;;;;;;5396198;26;20000;-88
2024/04/16 00:41:58;;;;;;;1.30;0.53;;;6.30;99.90;;;;;;5398133;26;20003;-87
2024/04/16 00:44:24;;;;;;;0.60;0.50;;;6.30;99.90;;;;;;5396301;26;19999;-89
2024/04/16 00:46:50;;;;;;;1.03;0.60;;;6.30;99.90;;;;;;5397163;26;20004;-87
2024/04/16 00:49:16;;;;;;;1.03;0.53;;;6.30;99.90;;;;;;5394755;26;20126;-87
2024/04/16 00:51:42;;;;;;;1.27;0.70;;;6.20;99.90;;;;;;5397636;26;20011;-88
2024/04/16 00:54:08;;;;;;;2.87;1.93;;;6.10;99.90;;;;;;5393326;26;20035;-89
2024/04/16 00:56:36;;;;;;;0.87;0.60;;;6.10;99.90;;;;;;5394847;26;20032;-88
2024/04/16 00:59:03;;;;;;;0.77;0.50;;;6.00;99.90;;;;;;5394257;26;21216;-89
2024/04/16 01:01:29;;;;;;;0.73;0.70;;;5.90;99.90;;;;;;5365184;26;20500;-87
2024/04/16 01:03:56;;;;;;;2.27;0.70;;;5.80;99.90;;;;;;5395482;26;20004;-87
2024/04/16 01:06:23;;;;;;;1.73;0.80;;;5.80;99.90;;;;;;5397379;26;20003;-87
2024/04/16 01:08:48;;;;;;;3.03;0.70;;;5.70;99.90;;;;;;5394979;26;20010;-87
2024/04/16 01:11:27;;;;;;;1.13;0.60;;;5.70;99.90;;;;;;5396402;26;20011;-87
2024/04/16 01:13:54;;;;;;;0.60;0.60;;;5.70;99.90;;;;;;5396079;26;20047;-87
2024/04/16 01:16:21;;;;;;;0.67;0.50;;;5.70;99.90;;;;;;5393998;26;20007;-88
2024/04/16 01:18:47;;;;;;;1.20;0.60;;;5.70;99.90;;;;;;5396481;26;20008;-87
2024/04/16 01:21:12;;;;;;;3.50;0.83;;;5.60;99.90;;;;;;5396325;26;20009;-87
2024/04/16 01:23:38;;;;;;;1.50;0.80;;;5.60;99.90;;;;;;5398057;26;20100;-88
2024/04/16 01:26:03;;;;;;;0.97;0.60;;;5.70;99.90;;;;;;5402913;26;20797;-87
2024/04/16 01:28:29;;;;;;;1.63;1.13;;;5.70;99.90;;;;;;5373324;26;21781;-88
2024/04/16 01:30:55;;;;;;;1.13;0.60;;;5.70;99.90;;;;;;5406179;26;20043;-86
2024/04/16 01:33:20;;;;;;;2.10;0.60;;;5.70;99.90;;;;;;5373750;26;20012;-88
2024/04/16 01:35:46;;;;;;;0.70;0.70;;;5.60;99.90;;;;;;5407953;26;20115;-87
2024/04/16 01:38:12;;;;;;;0.77;0.60;;;5.60;99.90;;;;;;5408450;26;20014;-88
2024/04/16 01:40:38;;;;;;;1.67;0.77;;;5.60;99.90;;;;;;5412639;26;20000;-87
2024/04/16 01:43:04;;;;;;;1.40;0.70;;;5.50;99.90;;;;;;5411414;26;19995;-88
2024/04/16 01:45:29;;;;;;;0.93;0.60;;;5.50;99.90;;;;;;5410667;26;19996;-88
2024/04/16 01:47:55;;;;;;;0.87;0.67;;;5.50;99.90;;;;;;5405676;26;20019;-87
2024/04/16 01:50:20;;;;;;;1.47;0.90;;;5.50;99.90;;;;;;5408220;26;20014;-87
2024/04/16 01:52:46;;;;;;;2.63;0.87;;;5.50;99.90;;;;;;5405956;26;20022;-87
2024/04/16 01:55:11;;;;;;;1.70;0.83;;;5.50;99.90;;;;;;5405967;26;20004;-88
2024/04/16 01:57:37;;;;;;;2.00;0.80;;;5.40;99.90;;;;;;5402991;26;20014;-87
2024/04/16 02:00:04;;;;;;;1.10;0.93;;;5.30;99.90;;;;;;5402651;26;20677;-87
2024/04/16 02:02:31;;;;;;;0.90;0.70;;;5.30;99.90;;;;;;5399417;26;20023;-87
2024/04/16 02:04:57;;;;;;;2.30;0.83;;;5.20;99.90;;;;;;5401764;26;20101;-87
2024/04/16 02:07:23;;;;;;;1.27;0.80;;;5.20;99.90;;;;;;5404929;26;20007;-87
2024/04/16 02:09:49;;;;;;;2.57;0.70;;;5.20;99.90;;;;;;5402443;26;20096;-87
2024/04/16 02:12:14;;;;;;;1.17;0.70;;;5.20;99.90;;;;;;5400557;26;20739;-87
2024/04/16 02:14:40;;;;;;;1.53;0.70;;;5.20;99.90;;;;;;5402636;26;19995;-87
2024/04/16 02:17:06;;;;;;;2.83;1.00;;;5.20;99.90;;;;;;5401647;26;20053;-87
2024/04/16 02:19:32;;;;;;;1.53;0.90;;;5.20;99.90;;;;;;5400466;26;20126;-86
2024/04/16 02:21:57;;;;;;;2.83;0.80;;;5.20;99.90;;;;;;5401052;26;20008;-87
2024/04/16 02:24:23;;;;;;;2.10;1.10;;;5.20;99.90;;;;;;5402986;26;20022;-87
2024/04/16 02:26:48;;;;;;;2.60;0.97;;;5.20;99.90;;;;;;5401758;26;20094;-87
2024/04/16 02:29:14;;;;;;;2.23;0.87;;;5.30;99.90;;;;;;5403734;26;20051;-86
2024/04/16 02:31:39;;;;;;;1.90;0.97;;;5.20;99.90;;;;;;5400548;26;20012;-87
2024/04/16 02:34:05;;;;;;;5.90;1.27;;;5.20;99.90;;;;;;5403009;26;20004;-88
2024/04/16 02:36:30;;;;;;;3.83;2.23;;;5.20;99.90;;;;;;5402593;26;20000;-87
2024/04/16 02:38:56;;;;;;;4.33;1.20;;;5.20;99.90;;;;;;5403103;26;20035;-86
2024/04/16 02:41:21;;;;;;;2.93;1.10;;;5.20;99.90;;;;;;5402588;26;20003;-87
2024/04/16 02:43:47;;;;;;;3.47;1.10;;;5.10;99.90;;;;;;5375131;26;20008;-87
2024/04/16 02:46:12;;;;;;;4.57;1.10;;;5.00;99.90;;;;;;5401396;26;20008;-87
2024/04/16 02:48:38;;;;;;;3.20;1.23;;;4.90;99.90;;;;;;5402633;26;20014;-87
2024/04/16 02:51:04;;;;;;;7.07;2.00;;;4.90;99.90;;;;;;5400621;26;20068;-87
2024/04/16 02:53:29;;;;;;;9.73;1.70;;;4.80;99.90;;;;;;5403953;26;20118;-87
2024/04/16 02:55:55;;;;;;;3.33;1.27;;;4.80;99.90;;;;;;5403603;26;20049;-88
2024/04/16 02:58:21;;;;;;;4.80;1.20;;;4.70;99.90;;;;;;5404624;26;20467;-88
2024/04/16 03:00:46;;;;;;;6.00;1.33;;;4.60;99.90;;;;;;5404364;26;20023;-87
2024/04/16 03:03:12;;;;;;;4.97;1.20;;;4.40;99.90;;;;;;5402761;26;20015;-87
2024/04/16 03:05:40;;;;;;;3.27;1.10;;;4.40;99.90;;;;;;5401251;26;20004;-88
2024/04/16 03:08:06;;;;;;;4.20;1.23;;;4.30;99.90;;;;;;5403327;26;20044;-87
2024/04/16 03:10:37;;;;;;;2.53;1.23;;;4.20;99.90;;;;;;5403899;26;20003;-87
2024/04/16 03:13:03;;;;;;;7.10;1.40;;;4.20;99.90;;;;;;5402633;26;20000;-87
2024/04/16 03:15:31;;;;;;;4.33;1.10;;;4.30;99.90;;;;;;5401903;26;20008;-88
2024/04/16 03:17:56;;;;;;;5.33;1.30;;;4.20;99.90;;;;;;5404228;26;20003;-87
2024/04/16 03:20:22;;;;;;;9.03;1.70;;;4.20;99.90;;;;;;5400888;26;20006;-87
2024/04/16 03:22:53;;;;;;;5.60;1.40;;;4.10;99.90;;;;;;5402660;26;20359;-87
2024/04/16 03:25:21;;;;;;;7.00;2.03;;;4.00;99.90;;;;;;5403576;26;20000;-89
2024/04/16 03:27:47;;;;;;;2.83;1.27;;;4.10;99.90;;;;;;5404282;26;20007;-87
2024/04/16 03:30:14;;;;;;;4.87;1.47;;;4.00;99.90;;;;;;5403612;26;19995;-88
2024/04/16 03:32:45;;;;;;;4.57;1.50;;;4.00;99.90;;;;;;5404732;26;20666;-87
2024/04/16 03:35:13;;;;;;;7.20;1.70;;;4.00;99.90;;;;;;5400875;26;20019;-87
2024/04/16 03:37:47;;;;;;;5.67;1.57;;;3.90;99.90;;;;;;5405121;26;20011;-86
2024/04/16 03:40:13;;;;;;;9.13;1.70;;;3.90;99.90;;;;;;5404850;26;20000;-86
2024/04/16 03:42:39;;;;;;;4.03;1.50;;;3.80;99.90;;;;;;5399921;26;20021;-87
2024/04/16 03:45:05;;;;;;;4.43;1.60;;;3.80;99.90;;;;;;5403834;26;20000;-86
2024/04/16 03:47:31;;;;;;;4.47;1.30;;;3.80;99.90;;;;;;5402752;26;20053;-87
2024/04/16 03:49:56;;;;;;;4.60;1.70;;;3.70;99.90;;;;;;5402358;26;20020;-87
2024/04/16 03:52:22;;;;;;;4.60;1.23;;;3.80;99.90;;;;;;5404327;26;20019;-86
2024/04/16 03:54:47;;;;;;;2.73;1.20;;;3.70;99.90;;;;;;5401117;26;20008;-87
2024/04/16 03:57:13;;;;;;;2.83;1.30;;;3.60;99.90;;;;;;5401445;26;20073;-87
2024/04/16 04:02:24;;;;;;;;;;;3.50;99.90;;;;;;5405310;26;20591;-88
2024/04/16 04:04:50;;;;;;;5.53;1.33;;;3.50;99.90;;;;;;5405072;26;19945;-87
2024/04/16 04:07:18;;;;;;;3.70;1.43;;;3.50;99.90;;;;;;5406047;26;20011;-87
2024/04/16 04:09:43;;;;;;;2.87;1.20;;;3.50;99.90;;;;;;5405475;26;20043;-85
2024/04/16 04:12:09;;;;;;;3.83;1.40;;;3.50;99.90;;;;;;5402787;26;20000;-87
2024/04/16 04:14:35;;;;;;;3.53;1.67;;;3.50;99.90;;;;;;5403739;26;20007;-87
2024/04/16 04:17:02;;;;;;;3.87;1.40;;;3.50;99.90;;;;;;5401732;26;20026;-87
2024/04/16 04:19:27;;;;;;;5.70;1.30;;;3.50;99.90;;;;;;5402019;26;19995;-87
2024/04/16 04:21:53;;;;;;;4.60;1.23;;;3.50;99.90;;;;;;5406339;26;20004;-87
2024/04/16 04:24:21;;;;;;;3.93;1.80;;;3.60;99.90;;;;;;5401601;26;20007;-87
2024/04/16 04:26:46;;;;;;;4.40;1.40;;;3.60;99.90;;;;;;5370746;26;20011;-88
2024/04/16 04:29:13;;;;;;;4.00;1.30;;;3.70;99.90;;;;;;5402731;26;20010;-87
2024/04/16 04:31:39;;;;;;;4.60;1.30;;;3.70;99.90;;;;;;5401618;26;20006;-87
2024/04/16 04:34:05;;;;;;;3.97;1.20;;;3.70;99.90;;;;;;5401440;26;20000;-88
2024/04/16 04:36:32;;;;;;;3.10;1.27;;;3.70;99.90;;;;;;5398549;26;21335;-88
2024/04/16 04:38:57;;;;;;;4.03;1.20;;;3.80;99.90;;;;;;5398117;26;19999;-88
2024/04/16 04:41:23;;;;;;;3.43;1.60;;;3.80;99.90;;;;;;5394974;26;20023;-87
2024/04/16 04:43:53;;;;;;;5.50;1.20;;;3.80;99.90;;;;;;5398875;26;19996;-88
2024/04/16 04:46:19;;;;;;;5.30;1.40;;;3.80;99.90;;;;;;5394449;26;20537;-87
2024/04/16 04:48:45;;;;;;;3.77;1.23;;;3.80;99.90;;;;;;5399927;26;20061;-88
2024/04/16 04:51:10;;;;;;;5.57;1.40;;;3.70;99.90;;;;;;5399144;26;20062;-88
2024/04/16 04:53:37;;;;;;;3.47;1.63;;;3.70;99.90;;;;;;5403221;26;20084;-87
2024/04/16 04:56:03;;;;;;;3.90;1.50;;;3.70;99.90;;;;;;5397454;26;20056;-88
2024/04/16 04:58:31;;;;;;;3.43;1.20;;;3.70;99.90;;;;;;5394837;26;19997;-87
2024/04/16 05:00:57;;;;;;;4.57;1.70;;;3.70;99.90;;;;;;5397443;26;20020;-88
2024/04/16 05:03:25;;;;;;;2.80;1.23;;;3.80;99.90;;;;;;5399681;26;20008;-87
2024/04/16 05:05:50;;;;;;;6.03;1.23;;;3.80;99.90;;;;;;5396356;26;20019;-88
2024/04/16 05:08:18;;;;;;;3.37;1.70;;;3.70;99.90;;;;;;5395990;26;20019;-87
2024/04/16 05:10:49;;;;;;;6.87;1.70;;;3.60;99.90;;;;;;5394382;26;20020;-87
2024/04/16 05:13:15;;;;;;;4.00;1.53;;;3.50;99.90;;;;;;5399585;26;20045;-87
2024/04/16 05:15:40;;;;;;;2.83;1.20;;;3.50;99.90;;;;;;5400301;26;20000;-87
2024/04/16 05:18:06;;;;;;;2.47;1.20;;;3.40;99.90;;;;;;5400775;26;20011;-88
2024/04/16 05:20:32;;;;;;;3.73;1.50;;;3.40;99.90;;;;;;5365144;26;20415;-88
2024/04/16 05:22:57;;;;;;;3.10;1.40;;;3.40;99.90;;;;;;5399877;26;20069;-88
2024/04/16 05:25:25;;;;;;;3.00;1.20;;;3.30;99.90;;;;;;5395682;26;20000;-88
2024/04/16 05:27:51;;;;;;;3.53;1.37;;;3.40;99.90;;;;;;5393682;26;20018;-88
2024/04/16 05:30:16;;;;;;;2.43;1.30;;;3.40;99.90;;;;;;5393705;26;20016;-88
2024/04/16 05:32:43;;;;;;;4.23;1.37;;;3.40;99.90;;;;;;5391902;26;20003;-88
2024/04/16 05:35:09;;;;;;;3.93;1.20;;;3.50;99.90;;;;;;5391394;26;20011;-88
2024/04/16 05:37:35;;;;;;;2.47;1.10;;;3.50;99.90;;;;;;5392396;26;20023;-89
2024/04/16 05:40:00;;;;;;;1.43;1.00;;;3.50;99.90;;;;;;5393162;26;20046;-88
2024/04/16 05:42:26;;;;;;;2.10;1.20;;;3.50;99.90;;;;;;5387478;26;20044;-88
2024/04/16 05:44:52;;;;;;;3.20;1.60;;;3.50;99.90;;;;;;5393510;26;20026;-89
2024/04/16 05:47:17;;;;;;;4.47;1.10;;;3.60;99.90;;;;;;5391364;26;20019;-88
2024/04/16 05:49:43;;;;;;;4.53;1.40;;;3.60;99.90;;;;;;5393507;26;19999;-84
2024/04/16 05:52:08;;;;;;;2.80;1.33;;;3.60;99.90;;;;;;5390893;26;20066;-87
2024/04/16 05:54:34;;;;;;;3.67;1.70;;;3.70;99.90;;;;;;5397079;26;20015;-87
2024/04/16 05:57:01;;;;;;;2.20;1.50;;;3.70;99.90;;;;;;5399270;26;20222;-87
2024/04/16 05:59:26;;;;;;;2.20;1.20;;;3.80;99.90;;;;;;5391383;26;20092;-86
2024/04/16 06:01:52;;;;;;;2.97;1.53;;;3.80;99.90;;;;;;5394326;26;20007;-86
2024/04/16 06:04:17;;;;;;;6.10;1.90;;;3.90;99.90;;;;;;5393698;26;21283;-84
2024/04/16 06:06:43;;;;;;;1.50;0.90;;;4.00;99.90;;;;;;5394450;26;20017;-86
2024/04/16 06:09:09;;;;;;;0.93;0.93;;;4.00;99.90;;;;;;5396148;26;19999;-87
2024/04/16 06:11:34;;;;;;;1.27;0.70;;;4.10;99.90;;;;;;5393695;26;19984;-86
2024/04/16 06:14:00;;;;;;;2.93;0.80;;;4.00;99.90;;;;;;5388474;26;20012;-85
2024/04/16 06:16:26;;;;;;;0.93;0.70;;;4.10;99.90;;;;;;5389497;26;20018;-85
2024/04/16 06:18:52;;;;;;;1.30;1.20;;;4.10;99.90;;;;;;5392646;26;20004;-87
2024/04/16 06:21:18;;;;;;;1.47;0.90;;;4.20;99.90;;;;;;5389727;26;20035;-85
2024/04/16 06:23:43;;;;;;;0.77;0.73;;;4.20;99.90;;;;;;5397135;26;20123;-82
2024/04/16 06:26:09;;;;;;;2.47;1.00;;;4.30;99.90;;;;;;5357705;26;20106;-84
2024/04/16 06:28:36;;;;;;;1.43;0.90;;;4.30;99.90;;;;;;5388663;26;20012;-85
2024/04/16 06:31:02;;;;;;;1.60;0.90;;;4.40;99.90;;;;;;5391585;26;20004;-85
2024/04/16 06:33:33;;;;;;;2.73;1.00;;;4.40;99.90;;;;;;5390538;26;20047;-85
2024/04/16 06:35:59;;;;;;;2.40;1.00;;;4.50;99.90;;;;;;5391928;26;20096;-85
2024/04/16 06:38:27;;;;;;;1.43;0.67;;;4.60;99.90;;;;;;5390845;26;20017;-85
2024/04/16 06:40:53;;;;;;;2.87;0.83;;;4.60;99.90;;;;;;5355264;26;20644;-85
2024/04/16 06:43:18;;;;;;;2.23;1.10;;;4.60;99.90;;;;;;5390749;26;20007;-84
2024/04/16 06:45:44;;;;;;;2.20;1.10;;;4.70;99.90;;;;;;5387559;26;20023;-85
2024/04/16 06:48:09;;;;;;;2.13;0.90;;;4.70;99.90;;;;;;5359648;26;20035;-84
2024/04/16 06:50:35;;;;;;;2.53;0.70;;;4.80;99.90;;;;;;5388884;26;21674;-84
2024/04/16 06:53:00;;;;;;;3.70;0.80;;;5.00;99.90;;;;;;5391465;26;20007;-85
2024/04/16 06:55:26;;;;;;;2.90;1.00;;;5.10;99.90;;;;;;5394285;26;20007;-84
2024/04/16 06:57:52;;;;;;;1.37;0.67;;;5.10;99.90;;;;;;5392606;26;20008;-85
2024/04/16 07:00:17;;;;;;;2.97;1.40;;;5.20;99.90;;;;;;5393063;26;20018;-85
2024/04/16 07:02:43;;;;;;;1.03;0.80;;;5.30;99.90;;;;;;5394673;26;20008;-85
2024/04/16 07:05:10;;;;;;;1.00;0.80;;;5.30;99.90;;;;;;5391966;26;20008;-86
2024/04/16 07:07:36;;;;;;;0.70;0.70;;;5.40;99.90;;;;;;5385541;26;20011;-85
2024/04/16 07:10:02;;;;;;;2.73;0.97;;;5.40;99.90;;;;;;5392089;26;20028;-85
2024/04/16 07:12:29;;;;;;;1.47;0.80;;;5.50;99.90;;;;;;5392291;26;20000;-85
2024/04/16 07:14:54;;;;;;;2.67;0.77;;;5.50;99.90;;;;;;5388813;26;20012;-85
2024/04/16 07:17:21;;;;;;;1.87;1.13;;;5.60;99.90;;;;;;5391601;26;20013;-86
2024/04/16 07:19:48;;;;;;;1.53;0.90;;;5.60;99.90;;;;;;5363926;26;20030;-85
2024/04/16 07:22:15;;;;;;;1.87;0.90;;;5.70;99.90;;;;;;5391495;26;20089;-85
2024/04/16 07:24:41;;;;;;;0.97;0.70;;;5.80;99.90;;;;;;5397798;26;21799;-86
2024/04/16 07:27:07;;;;;;;1.03;0.70;;;5.90;99.90;;;;;;5358779;26;20057;-86
2024/04/16 07:29:33;;;;;;;2.50;0.80;;;6.10;99.90;;;;;;5393362;26;20007;-86
2024/04/16 07:31:58;;;;;;;1.10;0.80;;;6.20;99.90;;;;;;5390572;26;19999;-86
2024/04/16 07:34:24;;;;;;;3.07;0.80;;;6.30;99.90;;;;;;5382308;26;20004;-86
2024/04/16 07:36:49;;;;;;;21.40;1.77;;;6.30;99.90;;;;;;5390144;26;20044;-86
2024/04/16 07:39:15;;;;;;;4.00;0.80;;;6.40;99.90;;;;;;5388650;26;20003;-86
2024/04/16 07:41:41;;;;;;;2.13;0.80;;;6.40;99.90;;;;;;5390029;26;19999;-86
2024/04/16 07:44:07;;;;;;;4.43;0.80;;;6.30;99.90;;;;;;5389288;26;20481;-85
2024/04/16 07:46:33;;;;;;;3.53;1.00;;;6.30;99.90;;;;;;5354769;26;20003;-86
2024/04/16 07:48:59;;;;;;;4.20;1.50;;;6.30;99.90;;;;;;5389581;26;20019;-86
2024/04/16 07:51:25;;;;;;;4.80;1.40;;;6.20;99.90;;;;;;5390202;26;19999;-86
2024/04/16 07:53:51;;;;;;;1.40;0.90;;;6.10;99.90;;;;;;5357431;26;20031;-85
2024/04/16 07:56:16;;;;;;;4.20;1.00;;;6.10;99.90;;;;;;5391493;26;20027;-86
2024/04/16 07:58:42;;;;;;;1.73;0.80;;;6.10;99.90;;;;;;5389692;26;20009;-85
2024/04/16 08:01:08;;;;;;;1.80;1.00;;;6.10;99.90;;;;;;5390158;26;20033;-86
2024/04/16 08:03:33;;;;;;;1.60;0.83;;;6.10;99.90;;;;;;5388100;26;20807;-86
2024/04/16 08:05:59;;;;;;;2.23;0.80;;;6.20;99.90;;;;;;5390610;26;20010;-86
2024/04/16 08:08:24;;;;;;;3.90;0.90;;;6.20;99.90;;;;;;5389027;26;20011;-86
2024/04/16 08:10:50;;;;;;;3.20;1.10;;;6.20;99.90;;;;;;5387895;26;20011;-85
2024/04/16 08:13:15;;;;;;;1.20;0.80;;;6.10;99.90;;;;;;5389324;26;20800;-86
2024/04/16 08:15:44;;;;;;;3.20;0.90;;;6.20;99.90;;;;;;5389243;26;20026;-86
2024/04/16 08:18:10;;;;;;;1.23;0.90;;;6.20;99.90;;;;;;5392370;26;20006;-86
2024/04/16 08:20:36;;;;;;;2.27;1.40;;;6.30;99.90;;;;;;5358017;26;20026;-86
2024/04/16 08:23:01;;;;;;;2.97;1.00;;;6.40;99.90;;;;;;5390996;26;20012;-86
2024/04/16 08:25:27;;;;;;;4.93;1.60;;;6.50;99.90;;;;;;5383423;26;20471;-87
2024/04/16 08:27:53;;;;;;;3.00;1.30;;;6.70;99.90;;;;;;5388016;26;20006;-86
2024/04/16 08:30:18;;;;;;;1.77;1.00;;;6.90;99.90;;;;;;5389996;26;20000;-87
2024/04/16 08:32:45;;;;;;;2.13;1.10;;;7.00;99.90;;;;;;5356711;26;20010;-86
2024/04/16 08:35:27;;;;;;;4.43;1.03;;;7.10;99.90;;;;;;5385174;26;20000;-85
2024/04/16 08:37:53;;;;;;;4.80;1.37;;;7.20;99.90;;;;;;5387818;26;20047;-87
2024/04/16 08:40:18;;;;;;;1.70;1.00;;;7.30;99.90;;;;;;5388755;26;19999;-86
2024/04/16 08:42:45;;;;;;;3.80;1.20;;;7.40;99.90;;;;;;5385209;26;20118;-86
2024/04/16 08:45:13;;;;;;;3.73;1.00;;;7.50;99.90;;;;;;5357433;26;20725;-86
2024/04/16 08:47:39;;;;;;;4.47;1.20;;;7.60;99.90;;;;;;5361087;26;20448;-85
2024/04/16 08:50:05;;;;;;;6.03;1.30;;;7.80;99.90;;;;;;5395068;26;20007;-86
2024/04/16 08:52:32;;;;;;;2.47;0.97;;;8.00;99.90;;;;;;5359475;26;20015;-86
2024/04/16 08:54:59;;;;;;;6.47;1.20;;;8.10;99.90;;;;;;5391188;26;20003;-85
2024/04/16 08:57:27;;;;;;;4.27;1.03;;;8.20;99.90;;;;;;5388188;26;20791;-85
2024/04/16 08:59:52;;;;;;;5.37;1.23;;;8.30;99.90;;;;;;5388769;26;20018;-86
2024/04/16 09:02:19;;;;;;;6.83;1.10;;;8.30;99.90;;;;;;5388754;26;20617;-85
2024/04/16 09:04:47;;;;;;;3.50;0.97;;;8.50;99.90;;;;;;5363822;26;20007;-86
2024/04/16 09:07:16;;;;;;;3.57;1.00;;;8.50;99.90;;;;;;5390026;26;20006;-85
2024/04/16 09:09:41;;;;;;;2.43;1.10;;;8.70;99.90;;;;;;5360958;26;20010;-85
2024/04/16 09:12:07;;;;;;;3.87;1.10;;;8.60;99.90;;;;;;5390776;26;20011;-85
2024/04/16 09:14:32;;;;;;;5.27;1.20;;;8.90;99.90;;;;;;5391428;26;20000;-85
2024/04/16 09:17:01;;;;;;;2.20;1.03;;;8.90;99.90;;;;;;5391238;26;20012;-85
2024/04/16 09:19:27;;;;;;;3.33;1.00;;;9.00;99.90;;;;;;5392120;26;20003;-85
2024/04/16 09:21:58;;;;;;;4.50;1.30;;;8.80;99.90;;;;;;5358772;26;20008;-85
2024/04/16 09:24:23;;;;;;;3.50;1.17;;;8.70;99.90;;;;;;5391680;26;20019;-85
2024/04/16 09:26:49;;;;;;;4.20;1.30;;;8.60;99.90;;;;;;5356764;26;20031;-86
2024/04/16 09:29:24;;;;;;;4.33;1.30;;;8.60;99.90;;;;;;5392543;26;20020;-86
2024/04/16 09:32:03;;;;;;;5.45;1.30;;;8.60;99.90;;;;;;5390062;26;20012;-85
2024/04/16 09:34:30;;;;;;;6.67;1.87;;;8.70;99.90;;;;;;5393183;26;20035;-85
2024/04/16 09:36:56;;;;;;;4.87;1.20;;;8.70;99.90;;;;;;5385762;26;19995;-85
2024/04/16 09:39:27;;;;;;;3.27;1.20;;;8.70;99.90;;;;;;5388625;26;20008;-85
2024/04/16 09:41:57;;;;;;;5.83;1.20;;;8.60;99.90;;;;;;5356635;26;20039;-85
2024/04/16 09:44:25;;;;;;;5.00;1.23;;;8.60;99.90;;;;;;5390417;26;20118;-85
2024/04/16 09:46:51;;;;;;;5.77;1.30;;;8.70;99.90;;;;;;5354849;26;20747;-85
2024/04/16 09:49:18;;;;;;;5.10;1.37;;;8.60;99.90;;;;;;5390763;26;20069;-85
2024/04/16 09:51:47;;;;;;;8.43;1.63;;;8.60;99.90;;;;;;5389112;26;20654;-85
2024/04/16 09:54:15;;;;;;;5.07;1.20;;;8.90;99.90;;;;;;5359041;26;19996;-84
2024/04/16 09:56:43;;;;;;;5.40;1.40;;;9.30;99.90;;;;;;5385886;26;20008;-85
2024/04/16 09:59:10;;;;;;;4.67;1.07;;;9.60;99.90;;;;;;5360015;26;19999;-85
2024/04/16 10:01:40;;;;;;;6.07;1.47;;;9.80;99.90;;;;;;5391872;26;19999;-85
2024/04/16 10:04:08;;;;;;;4.70;1.50;;;9.80;99.90;;;;;;5389364;26;20100;-86
2024/04/16 10:06:34;;;;;;;6.90;1.67;;;9.90;99.90;;;;;;5388602;26;19995;-86
2024/04/16 10:09:01;;;;;;;6.60;1.30;;;10.20;99.90;;;;;;5389571;26;20014;-87
2024/04/16 10:11:28;;;;;;;5.57;1.43;;;10.50;99.90;;;;;;5388740;26;20008;-86
2024/04/16 10:13:54;;;;;;;5.20;1.50;;;10.70;99.90;;;;;;5389257;26;20007;-85
2024/04/16 10:16:20;;;;;;;5.50;1.57;;;10.90;99.90;;;;;;5383013;26;20635;-85
2024/04/16 10:18:56;;;;;;;5.43;1.20;;;11.10;99.90;;;;;;5383693;26;20004;-83
2024/04/16 10:21:25;;;;;;;4.07;1.30;;;11.00;99.90;;;;;;5387560;26;20019;-83
2024/04/16 10:24:01;;;;;;;6.00;1.50;;;10.80;99.90;;;;;;5359798;26;20007;-83
2024/04/16 10:26:29;;;;;;;6.00;1.40;;;10.80;99.90;;;;;;5389986;26;20483;-85
2024/04/16 10:28:59;;;;;;;5.20;1.43;;;10.90;99.90;;;;;;5391723;26;21826;-85
2024/04/16 10:31:38;;;;;;;6.53;1.70;;;11.00;99.90;;;;;;5393429;26;20532;-84
2024/04/16 10:34:03;;;;;;;5.00;1.27;;;11.00;99.90;;;;;;5386159;26;20047;-86
2024/04/16 10:36:30;;;;;;;7.40;1.77;;;10.80;99.90;;;;;;5389671;26;19999;-84
2024/04/16 10:38:56;;;;;;;5.70;1.20;;;10.50;99.90;;;;;;5390157;26;20003;-85
2024/04/16 10:41:28;;;;;;;7.00;1.40;;;10.10;99.90;;;;;;5389642;26;20036;-84
2024/04/16 10:43:56;;;;;;;5.57;1.93;;;9.80;99.90;;;;;;5387862;26;20004;-85
2024/04/16 10:46:25;;;;;;;4.83;1.30;;;9.80;99.90;;;;;;5387672;26;20003;-85
2024/04/16 10:48:52;;;;;;;6.40;1.70;;;9.90;99.90;;;;;;5381618;26;20089;-86
2024/04/16 10:51:17;;;;;;;4.30;1.20;;;10.00;99.90;;;;;;5387132;26;20010;-86
2024/04/16 10:53:43;;;;;;;7.60;1.60;;;10.10;99.90;;;;;;5386628;26;20008;-86
2024/04/16 10:56:10;;;;;;;6.80;1.70;;;10.10;99.90;;;;;;5387291;26;20003;-87
2024/04/16 10:58:37;;;;;;;8.77;1.90;;;10.10;99.90;;;;;;5388059;26;20051;-87
2024/04/16 11:01:04;;;;;;;6.07;1.43;;;10.10;99.90;;;;;;5387122;26;20007;-87
2024/04/16 11:03:33;;;;;;;6.07;1.47;;;10.00;99.90;;;;;;5386887;26;20008;-87
2024/04/16 11:05:58;;;;;;;4.63;1.27;;;10.00;99.90;;;;;;5382409;26;20015;-87
2024/04/16 11:08:26;;;;;;;7.37;1.67;;;10.10;99.90;;;;;;5385540;26;20023;-87
2024/04/16 11:10:53;;;;;;;5.83;1.57;;;10.30;99.90;;;;;;5385590;26;20055;-86
2024/04/16 11:13:19;;;;;;;9.50;1.70;;;10.50;99.90;;;;;;5386635;26;20014;-87
2024/04/16 11:15:46;;;;;;;5.07;1.40;;;10.70;99.90;;;;;;5386428;26;20004;-89
2024/04/16 11:18:12;;;;;;;6.13;1.60;;;10.80;99.90;;;;;;5386984;26;20434;-88
2024/04/16 11:20:39;;;;;;;5.23;1.50;;;10.70;99.90;;;;;;5388874;26;20000;-91
2024/04/16 11:23:05;;;;;;;7.47;1.37;;;10.50;99.90;;;;;;5387470;26;20022;-90
2024/04/16 11:25:32;;;;;;;4.90;1.40;;;10.50;99.90;;;;;;5388225;26;20012;-90
2024/04/16 11:27:57;;;;;;;5.10;1.40;;;10.60;99.90;;;;;;5388157;26;20012;-90
2024/04/16 11:30:24;;;;;;;6.07;1.40;;;10.70;99.90;;;;;;5387368;26;20028;-89
2024/04/16 11:32:50;;;;;;;6.80;1.30;;;10.80;99.90;;;;;;5385032;26;20062;-88
2024/04/16 11:35:15;;;;;;;9.37;1.53;;;10.90;99.90;;;;;;5354240;26;20000;-90
2024/04/16 11:37:44;;;;;;;7.93;1.33;;;11.10;99.90;;;;;;5355913;26;20018;-90
2024/04/16 11:40:11;;;;;;;5.67;1.17;;;11.20;99.90;;;;;;5385809;26;20017;-90
2024/04/16 11:42:36;;;;;;;7.13;1.63;;;10.90;99.90;;;;;;5389548;26;20447;-89
2024/04/16 11:45:03;;;;;;;5.87;1.70;;;10.70;99.90;;;;;;5388341;26;20058;-89
2024/04/16 11:47:29;;;;;;;5.70;1.20;;;10.60;99.90;;;;;;5389153;26;20011;-91
2024/04/16 11:49:57;;;;;;;6.90;1.50;;;10.70;99.90;;;;;;5390715;26;20396;-87
2024/04/16 11:52:23;;;;;;;6.53;1.37;;;10.50;99.90;;;;;;5387759;26;20004;-88
2024/04/16 11:54:49;;;;;;;5.83;1.40;;;10.40;99.90;;;;;;5383472;26;20014;-90
2024/04/16 11:57:14;;;;;;;4.63;1.43;;;10.70;99.90;;;;;;5389404;26;20051;-90
2024/04/16 11:59:40;;;;;;;7.00;2.03;;;10.70;99.90;;;;;;5385412;26;20011;-88
2024/04/16 12:02:06;;;;;;;8.43;2.23;;;10.90;99.90;;;;;;5384635;26;20008;-89
2024/04/16 12:04:37;;;;;;;5.17;1.47;;;11.20;99.90;;;;;;5389002;26;20011;-89
2024/04/16 12:07:03;;;;;;;8.97;1.40;;;11.10;99.90;;;;;;5384833;26;20015;-90
2024/04/16 12:09:28;;;;;;;4.73;1.40;;;11.00;99.90;;;;;;5382380;26;20007;-90
2024/04/16 12:11:55;;;;;;;8.73;1.90;;;10.80;99.90;;;;;;5383597;26;20007;-89
2024/04/16 12:14:20;;;;;;;2.90;1.10;;;10.70;99.90;;;;;;5387297;26;20049;-88
2024/04/16 12:16:47;;;;;;;3.40;1.13;;;10.70;99.90;;;;;;5385729;26;20830;-88
2024/04/16 12:19:13;;;;;;;6.40;1.20;;;10.70;99.90;;;;;;5389630;26;20020;-87
2024/04/16 12:21:38;;;;;;;4.13;1.30;;;10.70;99.90;;;;;;5388518;26;19996;-88
2024/04/16 12:24:04;;;;;;;6.80;1.67;;;10.50;99.90;;;;;;5386145;26;20015;-88
2024/04/16 12:26:30;;;;;;;7.83;1.50;;;10.40;99.90;;;;;;5385198;26;20011;-87
2024/04/16 12:28:57;;;;;;;6.07;1.30;;;10.50;99.90;;;;;;5386164;26;20010;-85
2024/04/16 12:31:24;;;;;;;5.53;1.33;;;10.70;99.90;;;;;;5388225;26;19992;-86
2024/04/16 12:33:49;;;;;;;6.10;1.40;;;11.00;99.90;;;;;;5386618;26;20011;-85
2024/04/16 12:36:15;;;;;;;3.77;1.20;;;11.30;99.90;;;;;;5384896;26;21092;-85
2024/04/16 12:38:41;;;;;;;2.80;1.10;;;11.50;99.90;;;;;;5384283;26;20003;-85
2024/04/16 12:41:07;;;;;;;4.77;1.20;;;11.60;99.90;;;;;;5384004;26;20022;-86
2024/04/16 12:43:32;;;;;;;4.37;1.30;;;11.60;99.90;;;;;;5383923;26;19995;-86
2024/04/16 12:45:59;;;;;;;5.10;1.50;;;11.50;99.90;;;;;;5384718;26;20008;-85
2024/04/16 12:48:30;;;;;;;3.73;1.10;;;11.40;99.90;;;;;;5383294;26;20098;-86
2024/04/16 12:50:55;;;;;;;4.30;1.20;;;11.40;99.90;;;;;;5385631;26;20146;-85
2024/04/16 12:53:21;;;;;;;4.30;1.13;;;11.30;99.90;;;;;;5384784;26;20052;-86